sensor_id;sensor_type;location;lat;lon;timestamp;P1;durP1;ratioP1;P2;durP2;ratioP2
33138;SDS011;19501;50.948;5.316;2023-11-19T00:02:21;0.40;;;0.40;;
33138;SDS011;19501;50.948;5.316;2023-11-19T00:04:47;0.40;;;0.40;;
33138;SDS011;19501;50.948;5.316;2023-11-19T00:07:13;0.40;;;0.40;;
33138;SDS011;19501;50.948;5.316;2023-11-19T00:09:39;0.40;;;0.40;;
33138;SDS011;19501;50.948;5.316;2023-11-19T00:12:05;0.40;;;0.40;;
33138;SDS011;19501;50.948;5.316;2023-11-19T00:14:32;0.40;;;0.40;;
33138;SDS011;19501;50.948;5.316;2023-11-19T00:16:59;0.40;;;0.40;;
33138;SDS011;19501;50.948;5.316;2023-11-19T00:19:25;0.40;;;0.40;;
33138;SDS011;19501;50.948;5.316;2023-11-19T00:21:51;0.30;;;0.30;;
33138;SDS011;19501;50.948;5.316;2023-11-19T00:24:17;0.30;;;0.30;;
33138;SDS011;19501;50.948;5.316;2023-11-19T00:26:43;0.40;;;0.40;;
33138;SDS011;19501;50.948;5.316;2023-11-19T00:29:09;0.50;;;0.50;;
33138;SDS011;19501;50.948;5.316;2023-11-19T00:31:35;0.30;;;0.30;;
33138;SDS011;19501;50.948;5.316;2023-11-19T00:34:01;0.38;;;0.38;;
33138;SDS011;19501;50.948;5.316;2023-11-19T00:36:31;2.13;;;1.92;;
33138;SDS011;19501;50.948;5.316;2023-11-19T00:38:59;0.40;;;0.40;;
33138;SDS011;19501;50.948;5.316;2023-11-19T00:41:25;0.40;;;0.40;;
33138;SDS011;19501;50.948;5.316;2023-11-19T00:43:50;0.40;;;0.40;;
33138;SDS011;19501;50.948;5.316;2023-11-19T00:46:16;0.40;;;0.40;;
33138;SDS011;19501;50.948;5.316;2023-11-19T00:48:42;0.40;;;0.40;;
33138;SDS011;19501;50.948;5.316;2023-11-19T00:51:07;0.40;;;0.40;;
33138;SDS011;19501;50.948;5.316;2023-11-19T00:53:33;0.40;;;0.40;;
33138;SDS011;19501;50.948;5.316;2023-11-19T00:56:01;0.40;;;0.40;;
33138;SDS011;19501;50.948;5.316;2023-11-19T00:58:27;0.70;;;0.70;;
33138;SDS011;19501;50.948;5.316;2023-11-19T01:00:52;0.40;;;0.40;;
33138;SDS011;19501;50.948;5.316;2023-11-19T01:03:18;5.68;;;3.08;;
33138;SDS011;19501;50.948;5.316;2023-11-19T01:05:46;0.40;;;0.40;;
33138;SDS011;19501;50.948;5.316;2023-11-19T01:08:12;0.40;;;0.40;;
33138;SDS011;19501;50.948;5.316;2023-11-19T01:10:38;0.40;;;0.40;;
33138;SDS011;19501;50.948;5.316;2023-11-19T01:13:04;0.60;;;0.60;;
33138;SDS011;19501;50.948;5.316;2023-11-19T01:15:32;0.40;;;0.40;;
33138;SDS011;19501;50.948;5.316;2023-11-19T01:17:58;0.68;;;0.68;;
33138;SDS011;19501;50.948;5.316;2023-11-19T01:20:24;0.40;;;0.40;;
33138;SDS011;19501;50.948;5.316;2023-11-19T01:22:50;0.40;;;0.40;;
33138;SDS011;19501;50.948;5.316;2023-11-19T01:25:16;0.40;;;0.40;;
33138;SDS011;19501;50.948;5.316;2023-11-19T01:27:41;3.05;;;2.85;;
33138;SDS011;19501;50.948;5.316;2023-11-19T01:30:07;0.40;;;0.40;;
33138;SDS011;19501;50.948;5.316;2023-11-19T01:32:38;0.40;;;0.40;;
33138;SDS011;19501;50.948;5.316;2023-11-19T01:35:05;0.30;;;0.30;;
33138;SDS011;19501;50.948;5.316;2023-11-19T01:37:31;1.20;;;0.80;;
33138;SDS011;19501;50.948;5.316;2023-11-19T01:39:57;0.35;;;0.35;;
33138;SDS011;19501;50.948;5.316;2023-11-19T01:42:23;0.40;;;0.40;;
33138;SDS011;19501;50.948;5.316;2023-11-19T01:45:00;0.40;;;0.40;;
33138;SDS011;19501;50.948;5.316;2023-11-19T01:47:29;0.50;;;0.50;;
33138;SDS011;19501;50.948;5.316;2023-11-19T01:49:56;0.32;;;0.32;;
33138;SDS011;19501;50.948;5.316;2023-11-19T01:52:22;0.40;;;0.40;;
33138;SDS011;19501;50.948;5.316;2023-11-19T01:54:48;0.40;;;0.40;;
33138;SDS011;19501;50.948;5.316;2023-11-19T01:57:15;0.38;;;0.38;;
33138;SDS011;19501;50.948;5.316;2023-11-19T01:59:41;1.58;;;1.48;;
33138;SDS011;19501;50.948;5.316;2023-11-19T02:02:07;0.40;;;0.40;;
33138;SDS011;19501;50.948;5.316;2023-11-19T02:04:33;0.47;;;0.47;;
33138;SDS011;19501;50.948;5.316;2023-11-19T02:06:59;0.40;;;0.40;;
33138;SDS011;19501;50.948;5.316;2023-11-19T02:09:26;0.40;;;0.40;;
33138;SDS011;19501;50.948;5.316;2023-11-19T02:11:52;3.55;;;3.25;;
33138;SDS011;19501;50.948;5.316;2023-11-19T02:14:19;0.40;;;0.40;;
33138;SDS011;19501;50.948;5.316;2023-11-19T02:16:50;0.40;;;0.40;;
33138;SDS011;19501;50.948;5.316;2023-11-19T02:19:19;1.05;;;1.00;;
33138;SDS011;19501;50.948;5.316;2023-11-19T02:21:45;0.98;;;0.98;;
33138;SDS011;19501;50.948;5.316;2023-11-19T02:24:10;0.40;;;0.40;;
33138;SDS011;19501;50.948;5.316;2023-11-19T02:26:47;0.40;;;0.40;;
33138;SDS011;19501;50.948;5.316;2023-11-19T02:29:30;0.30;;;0.30;;
33138;SDS011;19501;50.948;5.316;2023-11-19T02:31:55;0.40;;;0.40;;
33138;SDS011;19501;50.948;5.316;2023-11-19T02:34:21;0.40;;;0.40;;
33138;SDS011;19501;50.948;5.316;2023-11-19T02:36:47;0.40;;;0.40;;
33138;SDS011;19501;50.948;5.316;2023-11-19T02:39:12;0.40;;;0.40;;
33138;SDS011;19501;50.948;5.316;2023-11-19T02:41:38;0.30;;;0.30;;
33138;SDS011;19501;50.948;5.316;2023-11-19T02:44:05;0.40;;;0.40;;
33138;SDS011;19501;50.948;5.316;2023-11-19T02:46:33;0.45;;;0.45;;
33138;SDS011;19501;50.948;5.316;2023-11-19T02:48:59;0.30;;;0.30;;
33138;SDS011;19501;50.948;5.316;2023-11-19T02:51:25;0.30;;;0.30;;
33138;SDS011;19501;50.948;5.316;2023-11-19T02:53:52;0.40;;;0.40;;
33138;SDS011;19501;50.948;5.316;2023-11-19T02:56:18;0.30;;;0.30;;
33138;SDS011;19501;50.948;5.316;2023-11-19T02:58:54;0.30;;;0.30;;
33138;SDS011;19501;50.948;5.316;2023-11-19T03:01:23;0.40;;;0.40;;
33138;SDS011;19501;50.948;5.316;2023-11-19T03:03:55;0.40;;;0.40;;
33138;SDS011;19501;50.948;5.316;2023-11-19T03:06:23;0.77;;;0.77;;
33138;SDS011;19501;50.948;5.316;2023-11-19T03:08:49;0.38;;;0.38;;
33138;SDS011;19501;50.948;5.316;2023-11-19T03:11:15;0.45;;;0.45;;
33138;SDS011;19501;50.948;5.316;2023-11-19T03:13:41;0.40;;;0.40;;
33138;SDS011;19501;50.948;5.316;2023-11-19T03:16:06;0.40;;;0.40;;
33138;SDS011;19501;50.948;5.316;2023-11-19T03:18:32;0.77;;;0.77;;
33138;SDS011;19501;50.948;5.316;2023-11-19T03:20:58;0.40;;;0.40;;
33138;SDS011;19501;50.948;5.316;2023-11-19T03:23:24;0.40;;;0.40;;
33138;SDS011;19501;50.948;5.316;2023-11-19T03:25:52;0.40;;;0.40;;
33138;SDS011;19501;50.948;5.316;2023-11-19T03:28:18;0.40;;;0.40;;
33138;SDS011;19501;50.948;5.316;2023-11-19T03:30:44;0.40;;;0.40;;
33138;SDS011;19501;50.948;5.316;2023-11-19T03:33:10;0.40;;;0.40;;
33138;SDS011;19501;50.948;5.316;2023-11-19T03:35:36;0.40;;;0.40;;
33138;SDS011;19501;50.948;5.316;2023-11-19T03:38:02;0.40;;;0.40;;
33138;SDS011;19501;50.948;5.316;2023-11-19T03:40:28;0.30;;;0.30;;
33138;SDS011;19501;50.948;5.316;2023-11-19T03:42:55;1.65;;;1.48;;
33138;SDS011;19501;50.948;5.316;2023-11-19T03:45:23;0.40;;;0.40;;
33138;SDS011;19501;50.948;5.316;2023-11-19T03:47:49;1.67;;;1.58;;
33138;SDS011;19501;50.948;5.316;2023-11-19T03:50:20;0.40;;;0.40;;
33138;SDS011;19501;50.948;5.316;2023-11-19T03:52:46;0.40;;;0.40;;
33138;SDS011;19501;50.948;5.316;2023-11-19T03:55:12;0.38;;;0.38;;
33138;SDS011;19501;50.948;5.316;2023-11-19T03:57:38;0.40;;;0.40;;
33138;SDS011;19501;50.948;5.316;2023-11-19T04:00:04;0.40;;;0.40;;
33138;SDS011;19501;50.948;5.316;2023-11-19T04:02:39;0.40;;;0.40;;
33138;SDS011;19501;50.948;5.316;2023-11-19T04:05:05;0.40;;;0.40;;
33138;SDS011;19501;50.948;5.316;2023-11-19T04:07:31;0.40;;;0.40;;
33138;SDS011;19501;50.948;5.316;2023-11-19T04:09:57;0.40;;;0.40;;
33138;SDS011;19501;50.948;5.316;2023-11-19T04:12:23;0.40;;;0.40;;
33138;SDS011;19501;50.948;5.316;2023-11-19T04:14:49;0.40;;;0.40;;
33138;SDS011;19501;50.948;5.316;2023-11-19T04:17:14;0.40;;;0.40;;
33138;SDS011;19501;50.948;5.316;2023-11-19T04:19:40;0.40;;;0.40;;
33138;SDS011;19501;50.948;5.316;2023-11-19T04:22:09;0.40;;;0.40;;
33138;SDS011;19501;50.948;5.316;2023-11-19T04:24:35;0.40;;;0.40;;
33138;SDS011;19501;50.948;5.316;2023-11-19T04:27:01;0.40;;;0.40;;
33138;SDS011;19501;50.948;5.316;2023-11-19T04:29:29;0.40;;;0.40;;
33138;SDS011;19501;50.948;5.316;2023-11-19T04:31:56;0.45;;;0.45;;
33138;SDS011;19501;50.948;5.316;2023-11-19T04:34:21;0.40;;;0.40;;
33138;SDS011;19501;50.948;5.316;2023-11-19T04:36:47;0.40;;;0.40;;
33138;SDS011;19501;50.948;5.316;2023-11-19T04:39:12;28.77;;;5.30;;
33138;SDS011;19501;50.948;5.316;2023-11-19T04:41:50;33.72;;;5.72;;
33138;SDS011;19501;50.948;5.316;2023-11-19T04:44:19;30.73;;;5.05;;
33138;SDS011;19501;50.948;5.316;2023-11-19T04:46:44;29.48;;;5.30;;
33138;SDS011;19501;50.948;5.316;2023-11-19T04:49:11;26.05;;;4.90;;
33138;SDS011;19501;50.948;5.316;2023-11-19T04:51:40;26.20;;;5.95;;
33138;SDS011;19501;50.948;5.316;2023-11-19T04:54:07;21.55;;;3.63;;
33138;SDS011;19501;50.948;5.316;2023-11-19T04:56:33;27.25;;;6.43;;
33138;SDS011;19501;50.948;5.316;2023-11-19T04:59:02;28.27;;;6.38;;
33138;SDS011;19501;50.948;5.316;2023-11-19T05:01:30;37.67;;;6.40;;
33138;SDS011;19501;50.948;5.316;2023-11-19T05:03:56;28.27;;;5.00;;
33138;SDS011;19501;50.948;5.316;2023-11-19T05:06:26;26.67;;;5.38;;
33138;SDS011;19501;50.948;5.316;2023-11-19T05:08:53;34.05;;;6.10;;
33138;SDS011;19501;50.948;5.316;2023-11-19T05:11:19;30.65;;;6.43;;
33138;SDS011;19501;50.948;5.316;2023-11-19T05:13:45;31.02;;;5.80;;
33138;SDS011;19501;50.948;5.316;2023-11-19T05:16:11;32.70;;;4.93;;
33138;SDS011;19501;50.948;5.316;2023-11-19T05:18:39;28.00;;;5.30;;
33138;SDS011;19501;50.948;5.316;2023-11-19T05:21:05;38.15;;;5.68;;
33138;SDS011;19501;50.948;5.316;2023-11-19T05:23:32;32.42;;;4.85;;
33138;SDS011;19501;50.948;5.316;2023-11-19T05:26:01;29.80;;;5.28;;
33138;SDS011;19501;50.948;5.316;2023-11-19T05:28:27;34.38;;;4.80;;
33138;SDS011;19501;50.948;5.316;2023-11-19T05:30:52;28.67;;;5.78;;
33138;SDS011;19501;50.948;5.316;2023-11-19T05:33:18;37.53;;;6.22;;
33138;SDS011;19501;50.948;5.316;2023-11-19T05:35:46;33.47;;;5.95;;
33138;SDS011;19501;50.948;5.316;2023-11-19T05:38:14;37.00;;;6.47;;
33138;SDS011;19501;50.948;5.316;2023-11-19T05:40:40;30.13;;;5.68;;
33138;SDS011;19501;50.948;5.316;2023-11-19T05:43:06;31.92;;;5.75;;
33138;SDS011;19501;50.948;5.316;2023-11-19T05:45:32;38.53;;;5.72;;
33138;SDS011;19501;50.948;5.316;2023-11-19T05:47:58;38.10;;;6.13;;
33138;SDS011;19501;50.948;5.316;2023-11-19T05:50:24;35.97;;;4.97;;
33138;SDS011;19501;50.948;5.316;2023-11-19T05:52:49;37.83;;;6.03;;
33138;SDS011;19501;50.948;5.316;2023-11-19T05:55:15;37.95;;;5.60;;
33138;SDS011;19501;50.948;5.316;2023-11-19T05:57:41;30.58;;;5.65;;
33138;SDS011;19501;50.948;5.316;2023-11-19T06:00:07;38.00;;;6.25;;
33138;SDS011;19501;50.948;5.316;2023-11-19T06:02:33;36.30;;;6.00;;
33138;SDS011;19501;50.948;5.316;2023-11-19T06:04:59;38.92;;;6.18;;
33138;SDS011;19501;50.948;5.316;2023-11-19T06:07:26;31.33;;;5.88;;
33138;SDS011;19501;50.948;5.316;2023-11-19T06:09:52;36.72;;;7.03;;
33138;SDS011;19501;50.948;5.316;2023-11-19T06:12:17;32.63;;;5.80;;
33138;SDS011;19501;50.948;5.316;2023-11-19T06:14:43;34.53;;;6.00;;
33138;SDS011;19501;50.948;5.316;2023-11-19T06:17:08;26.40;;;5.43;;
33138;SDS011;19501;50.948;5.316;2023-11-19T06:19:36;38.55;;;5.93;;
33138;SDS011;19501;50.948;5.316;2023-11-19T06:22:03;35.70;;;6.57;;
33138;SDS011;19501;50.948;5.316;2023-11-19T06:24:28;33.10;;;6.45;;
33138;SDS011;19501;50.948;5.316;2023-11-19T06:26:56;32.38;;;5.85;;
33138;SDS011;19501;50.948;5.316;2023-11-19T06:29:24;33.03;;;5.63;;
33138;SDS011;19501;50.948;5.316;2023-11-19T06:31:50;23.27;;;4.75;;
33138;SDS011;19501;50.948;5.316;2023-11-19T06:34:16;32.45;;;5.88;;
33138;SDS011;19501;50.948;5.316;2023-11-19T06:36:41;35.58;;;5.32;;
33138;SDS011;19501;50.948;5.316;2023-11-19T06:39:10;32.70;;;5.60;;
33138;SDS011;19501;50.948;5.316;2023-11-19T06:41:36;34.70;;;5.57;;
33138;SDS011;19501;50.948;5.316;2023-11-19T06:44:03;28.70;;;7.25;;
33138;SDS011;19501;50.948;5.316;2023-11-19T06:46:29;33.58;;;6.15;;
33138;SDS011;19501;50.948;5.316;2023-11-19T06:48:56;36.25;;;5.30;;
33138;SDS011;19501;50.948;5.316;2023-11-19T06:51:22;36.85;;;6.50;;
33138;SDS011;19501;50.948;5.316;2023-11-19T06:53:49;31.50;;;4.80;;
33138;SDS011;19501;50.948;5.316;2023-11-19T06:56:21;32.90;;;6.25;;
33138;SDS011;19501;50.948;5.316;2023-11-19T06:58:48;35.10;;;5.90;;
33138;SDS011;19501;50.948;5.316;2023-11-19T07:01:14;33.55;;;5.40;;
33138;SDS011;19501;50.948;5.316;2023-11-19T07:03:41;42.40;;;7.82;;
33138;SDS011;19501;50.948;5.316;2023-11-19T07:06:07;30.58;;;5.10;;
33138;SDS011;19501;50.948;5.316;2023-11-19T07:08:33;35.95;;;6.60;;
33138;SDS011;19501;50.948;5.316;2023-11-19T07:10:59;35.22;;;6.75;;
33138;SDS011;19501;50.948;5.316;2023-11-19T07:13:25;35.17;;;7.03;;
33138;SDS011;19501;50.948;5.316;2023-11-19T07:15:53;29.48;;;5.30;;
33138;SDS011;19501;50.948;5.316;2023-11-19T07:18:21;34.00;;;5.38;;
33138;SDS011;19501;50.948;5.316;2023-11-19T07:20:49;30.48;;;5.25;;
33138;SDS011;19501;50.948;5.316;2023-11-19T07:23:15;28.92;;;5.32;;
33138;SDS011;19501;50.948;5.316;2023-11-19T07:25:43;31.67;;;5.20;;
33138;SDS011;19501;50.948;5.316;2023-11-19T07:28:15;33.15;;;5.40;;
33138;SDS011;19501;50.948;5.316;2023-11-19T07:30:41;27.65;;;5.30;;
33138;SDS011;19501;50.948;5.316;2023-11-19T07:33:07;31.88;;;6.18;;
33138;SDS011;19501;50.948;5.316;2023-11-19T07:35:33;30.38;;;4.95;;
33138;SDS011;19501;50.948;5.316;2023-11-19T07:37:59;34.83;;;6.45;;
33138;SDS011;19501;50.948;5.316;2023-11-19T07:40:24;34.45;;;6.40;;
33138;SDS011;19501;50.948;5.316;2023-11-19T07:42:50;38.22;;;6.88;;
33138;SDS011;19501;50.948;5.316;2023-11-19T07:45:16;39.35;;;6.13;;
33138;SDS011;19501;50.948;5.316;2023-11-19T07:47:42;33.30;;;6.30;;
33138;SDS011;19501;50.948;5.316;2023-11-19T07:50:10;37.90;;;6.20;;
33138;SDS011;19501;50.948;5.316;2023-11-19T07:52:38;32.03;;;6.60;;
33138;SDS011;19501;50.948;5.316;2023-11-19T07:55:04;33.47;;;5.75;;
33138;SDS011;19501;50.948;5.316;2023-11-19T07:57:30;26.95;;;5.88;;
33138;SDS011;19501;50.948;5.316;2023-11-19T07:59:58;35.10;;;6.30;;
33138;SDS011;19501;50.948;5.316;2023-11-19T08:02:24;37.03;;;6.07;;
33138;SDS011;19501;50.948;5.316;2023-11-19T08:04:49;42.65;;;6.65;;
33138;SDS011;19501;50.948;5.316;2023-11-19T08:07:20;36.17;;;7.40;;
33138;SDS011;19501;50.948;5.316;2023-11-19T08:09:46;34.33;;;6.25;;
33138;SDS011;19501;50.948;5.316;2023-11-19T08:12:12;32.65;;;5.47;;
33138;SDS011;19501;50.948;5.316;2023-11-19T08:14:39;34.40;;;5.93;;
33138;SDS011;19501;50.948;5.316;2023-11-19T08:17:05;26.33;;;4.60;;
33138;SDS011;19501;50.948;5.316;2023-11-19T08:19:33;31.52;;;7.28;;
33138;SDS011;19501;50.948;5.316;2023-11-19T08:21:59;27.75;;;5.20;;
33138;SDS011;19501;50.948;5.316;2023-11-19T08:24:27;37.55;;;7.05;;
33138;SDS011;19501;50.948;5.316;2023-11-19T08:26:53;43.63;;;6.80;;
33138;SDS011;19501;50.948;5.316;2023-11-19T08:29:21;29.70;;;5.05;;
33138;SDS011;19501;50.948;5.316;2023-11-19T08:31:47;39.55;;;7.13;;
33138;SDS011;19501;50.948;5.316;2023-11-19T08:34:15;37.75;;;7.10;;
33138;SDS011;19501;50.948;5.316;2023-11-19T08:36:40;27.30;;;5.53;;
33138;SDS011;19501;50.948;5.316;2023-11-19T08:39:06;37.30;;;6.47;;
33138;SDS011;19501;50.948;5.316;2023-11-19T08:41:33;36.35;;;6.70;;
33138;SDS011;19501;50.948;5.316;2023-11-19T08:43:59;37.88;;;6.70;;
33138;SDS011;19501;50.948;5.316;2023-11-19T08:46:25;41.20;;;6.35;;
33138;SDS011;19501;50.948;5.316;2023-11-19T08:48:51;41.67;;;7.18;;
33138;SDS011;19501;50.948;5.316;2023-11-19T08:51:17;36.50;;;5.95;;
33138;SDS011;19501;50.948;5.316;2023-11-19T08:53:42;32.63;;;5.38;;
33138;SDS011;19501;50.948;5.316;2023-11-19T08:56:08;34.47;;;5.40;;
33138;SDS011;19501;50.948;5.316;2023-11-19T08:58:34;34.17;;;5.75;;
33138;SDS011;19501;50.948;5.316;2023-11-19T09:00:59;41.40;;;8.15;;
33138;SDS011;19501;50.948;5.316;2023-11-19T09:03:25;29.90;;;5.25;;
33138;SDS011;19501;50.948;5.316;2023-11-19T09:05:51;38.55;;;6.65;;
33138;SDS011;19501;50.948;5.316;2023-11-19T09:08:17;32.42;;;5.35;;
33138;SDS011;19501;50.948;5.316;2023-11-19T09:10:43;38.10;;;5.95;;
33138;SDS011;19501;50.948;5.316;2023-11-19T09:13:08;35.30;;;5.60;;
33138;SDS011;19501;50.948;5.316;2023-11-19T09:15:34;25.83;;;4.57;;
33138;SDS011;19501;50.948;5.316;2023-11-19T09:18:00;37.58;;;5.68;;
33138;SDS011;19501;50.948;5.316;2023-11-19T09:20:25;33.97;;;5.97;;
33138;SDS011;19501;50.948;5.316;2023-11-19T09:22:53;32.50;;;5.93;;
33138;SDS011;19501;50.948;5.316;2023-11-19T09:25:19;34.92;;;4.93;;
33138;SDS011;19501;50.948;5.316;2023-11-19T09:27:45;24.27;;;5.80;;
33138;SDS011;19501;50.948;5.316;2023-11-19T09:30:13;25.50;;;5.05;;
33138;SDS011;19501;50.948;5.316;2023-11-19T09:32:38;42.88;;;6.20;;
33138;SDS011;19501;50.948;5.316;2023-11-19T09:35:05;36.22;;;7.40;;
33138;SDS011;19501;50.948;5.316;2023-11-19T09:37:35;27.08;;;5.20;;
33138;SDS011;19501;50.948;5.316;2023-11-19T09:40:00;31.60;;;5.40;;
33138;SDS011;19501;50.948;5.316;2023-11-19T09:42:26;36.92;;;5.97;;
33138;SDS011;19501;50.948;5.316;2023-11-19T09:44:53;32.60;;;5.78;;
33138;SDS011;19501;50.948;5.316;2023-11-19T09:47:20;34.78;;;5.25;;
33138;SDS011;19501;50.948;5.316;2023-11-19T09:49:46;35.40;;;7.28;;
33138;SDS011;19501;50.948;5.316;2023-11-19T09:52:12;27.63;;;4.82;;
33138;SDS011;19501;50.948;5.316;2023-11-19T09:54:39;28.15;;;5.93;;
33138;SDS011;19501;50.948;5.316;2023-11-19T09:57:05;36.70;;;6.32;;
33138;SDS011;19501;50.948;5.316;2023-11-19T09:59:32;27.98;;;5.78;;
33138;SDS011;19501;50.948;5.316;2023-11-19T10:01:58;33.88;;;5.40;;
33138;SDS011;19501;50.948;5.316;2023-11-19T10:04:25;29.17;;;5.47;;
33138;SDS011;19501;50.948;5.316;2023-11-19T10:06:55;34.47;;;5.15;;
33138;SDS011;19501;50.948;5.316;2023-11-19T10:09:20;26.02;;;5.00;;
33138;SDS011;19501;50.948;5.316;2023-11-19T10:11:46;31.08;;;4.93;;
33138;SDS011;19501;50.948;5.316;2023-11-19T10:14:11;36.25;;;6.78;;
33138;SDS011;19501;50.948;5.316;2023-11-19T10:16:39;27.80;;;5.35;;
33138;SDS011;19501;50.948;5.316;2023-11-19T10:19:06;25.13;;;4.85;;
33138;SDS011;19501;50.948;5.316;2023-11-19T10:21:32;24.88;;;4.88;;
33138;SDS011;19501;50.948;5.316;2023-11-19T10:23:59;28.75;;;4.57;;
33138;SDS011;19501;50.948;5.316;2023-11-19T10:26:27;31.15;;;5.00;;
33138;SDS011;19501;50.948;5.316;2023-11-19T10:28:54;26.60;;;5.15;;
33138;SDS011;19501;50.948;5.316;2023-11-19T10:31:21;32.25;;;5.47;;
33138;SDS011;19501;50.948;5.316;2023-11-19T10:33:50;28.10;;;4.95;;
33138;SDS011;19501;50.948;5.316;2023-11-19T10:36:16;23.08;;;4.70;;
33138;SDS011;19501;50.948;5.316;2023-11-19T10:38:52;24.63;;;4.97;;
33138;SDS011;19501;50.948;5.316;2023-11-19T10:41:28;22.13;;;4.30;;
33138;SDS011;19501;50.948;5.316;2023-11-19T10:43:55;36.33;;;5.00;;
33138;SDS011;19501;50.948;5.316;2023-11-19T10:46:21;22.60;;;5.03;;
33138;SDS011;19501;50.948;5.316;2023-11-19T10:48:48;26.20;;;4.82;;
33138;SDS011;19501;50.948;5.316;2023-11-19T10:51:16;21.70;;;3.78;;
33138;SDS011;19501;50.948;5.316;2023-11-19T10:53:48;30.40;;;4.85;;
33138;SDS011;19501;50.948;5.316;2023-11-19T10:56:16;24.67;;;4.57;;
33138;SDS011;19501;50.948;5.316;2023-11-19T10:58:44;24.80;;;5.45;;
33138;SDS011;19501;50.948;5.316;2023-11-19T11:01:15;23.48;;;3.90;;
33138;SDS011;19501;50.948;5.316;2023-11-19T11:03:45;36.80;;;5.88;;
33138;SDS011;19501;50.948;5.316;2023-11-19T11:06:12;34.10;;;5.70;;
33138;SDS011;19501;50.948;5.316;2023-11-19T11:08:38;23.83;;;4.90;;
33138;SDS011;19501;50.948;5.316;2023-11-19T11:11:05;21.73;;;4.15;;
33138;SDS011;19501;50.948;5.316;2023-11-19T11:13:35;31.85;;;6.10;;
33138;SDS011;19501;50.948;5.316;2023-11-19T11:16:04;25.30;;;5.15;;
33138;SDS011;19501;50.948;5.316;2023-11-19T11:18:32;27.55;;;5.55;;
33138;SDS011;19501;50.948;5.316;2023-11-19T11:21:02;32.90;;;5.97;;
33138;SDS011;19501;50.948;5.316;2023-11-19T11:23:47;35.92;;;6.30;;
33138;SDS011;19501;50.948;5.316;2023-11-19T11:29:39;25.08;;;4.45;;
33138;SDS011;19501;50.948;5.316;2023-11-19T11:32:25;28.60;;;5.88;;
33138;SDS011;19501;50.948;5.316;2023-11-19T11:37:48;28.35;;;5.60;;
33138;SDS011;19501;50.948;5.316;2023-11-19T11:40:18;31.02;;;6.05;;
33138;SDS011;19501;50.948;5.316;2023-11-19T11:42:44;34.00;;;5.75;;
33138;SDS011;19501;50.948;5.316;2023-11-19T11:45:13;38.55;;;6.28;;
33138;SDS011;19501;50.948;5.316;2023-11-19T11:50:12;30.42;;;5.30;;
33138;SDS011;19501;50.948;5.316;2023-11-19T11:57:49;31.08;;;5.68;;
33138;SDS011;19501;50.948;5.316;2023-11-19T12:00:22;34.65;;;6.20;;
33138;SDS011;19501;50.948;5.316;2023-11-19T12:02:59;28.53;;;6.37;;
33138;SDS011;19501;50.948;5.316;2023-11-19T12:05:25;32.90;;;5.65;;
33138;SDS011;19501;50.948;5.316;2023-11-19T12:07:56;31.90;;;5.75;;
33138;SDS011;19501;50.948;5.316;2023-11-19T12:10:25;30.75;;;5.10;;
33138;SDS011;19501;50.948;5.316;2023-11-19T12:12:58;26.63;;;4.90;;
33138;SDS011;19501;50.948;5.316;2023-11-19T12:15:24;21.30;;;4.35;;
33138;SDS011;19501;50.948;5.316;2023-11-19T12:17:52;27.55;;;5.20;;
33138;SDS011;19501;50.948;5.316;2023-11-19T12:20:20;31.17;;;5.10;;
33138;SDS011;19501;50.948;5.316;2023-11-19T12:22:50;28.10;;;5.25;;
33138;SDS011;19501;50.948;5.316;2023-11-19T12:25:16;25.85;;;5.20;;
33138;SDS011;19501;50.948;5.316;2023-11-19T12:27:49;32.53;;;5.43;;
33138;SDS011;19501;50.948;5.316;2023-11-19T12:30:22;25.83;;;5.13;;
33138;SDS011;19501;50.948;5.316;2023-11-19T12:32:49;23.02;;;5.55;;
33138;SDS011;19501;50.948;5.316;2023-11-19T12:35:15;30.95;;;7.30;;
33138;SDS011;19501;50.948;5.316;2023-11-19T12:37:45;23.42;;;4.63;;
33138;SDS011;19501;50.948;5.316;2023-11-19T12:40:15;26.02;;;5.07;;
33138;SDS011;19501;50.948;5.316;2023-11-19T12:42:48;25.75;;;5.45;;
33138;SDS011;19501;50.948;5.316;2023-11-19T12:45:15;26.25;;;5.15;;
33138;SDS011;19501;50.948;5.316;2023-11-19T12:47:42;22.00;;;4.53;;
33138;SDS011;19501;50.948;5.316;2023-11-19T12:50:08;32.63;;;5.30;;
33138;SDS011;19501;50.948;5.316;2023-11-19T12:52:35;35.70;;;5.45;;
33138;SDS011;19501;50.948;5.316;2023-11-19T12:55:02;24.40;;;5.47;;
33138;SDS011;19501;50.948;5.316;2023-11-19T12:57:48;27.73;;;5.13;;
33138;SDS011;19501;50.948;5.316;2023-11-19T13:00:21;28.42;;;6.55;;
33138;SDS011;19501;50.948;5.316;2023-11-19T13:02:51;29.23;;;4.80;;
33138;SDS011;19501;50.948;5.316;2023-11-19T13:05:28;25.08;;;5.35;;
33138;SDS011;19501;50.948;5.316;2023-11-19T13:08:06;22.75;;;4.88;;
33138;SDS011;19501;50.948;5.316;2023-11-19T13:13:20;22.40;;;3.90;;
33138;SDS011;19501;50.948;5.316;2023-11-19T13:15:46;18.88;;;3.22;;
33138;SDS011;19501;50.948;5.316;2023-11-19T13:18:13;22.00;;;4.45;;
33138;SDS011;19501;50.948;5.316;2023-11-19T13:20:41;24.80;;;5.00;;
33138;SDS011;19501;50.948;5.316;2023-11-19T13:23:07;29.40;;;4.63;;
33138;SDS011;19501;50.948;5.316;2023-11-19T13:25:33;25.85;;;4.50;;
33138;SDS011;19501;50.948;5.316;2023-11-19T13:27:59;12.65;;;3.20;;
33138;SDS011;19501;50.948;5.316;2023-11-19T13:30:25;23.58;;;4.20;;
33138;SDS011;19501;50.948;5.316;2023-11-19T13:32:51;25.42;;;4.32;;
33138;SDS011;19501;50.948;5.316;2023-11-19T13:35:18;25.88;;;3.72;;
33138;SDS011;19501;50.948;5.316;2023-11-19T13:37:44;25.48;;;4.45;;
33138;SDS011;19501;50.948;5.316;2023-11-19T13:40:11;28.35;;;6.82;;
33138;SDS011;19501;50.948;5.316;2023-11-19T13:42:43;23.55;;;4.25;;
33138;SDS011;19501;50.948;5.316;2023-11-19T13:45:09;22.95;;;4.55;;
33138;SDS011;19501;50.948;5.316;2023-11-19T13:47:41;28.95;;;6.05;;
33138;SDS011;19501;50.948;5.316;2023-11-19T13:50:12;24.85;;;5.07;;
33138;SDS011;19501;50.948;5.316;2023-11-19T13:52:43;26.98;;;5.72;;
33138;SDS011;19501;50.948;5.316;2023-11-19T13:55:11;29.35;;;4.97;;
33138;SDS011;19501;50.948;5.316;2023-11-19T13:57:38;26.23;;;5.30;;
33138;SDS011;19501;50.948;5.316;2023-11-19T14:00:05;24.35;;;5.35;;
33138;SDS011;19501;50.948;5.316;2023-11-19T14:02:37;35.70;;;6.22;;
33138;SDS011;19501;50.948;5.316;2023-11-19T14:05:07;26.77;;;5.93;;
33138;SDS011;19501;50.948;5.316;2023-11-19T14:07:33;37.75;;;5.75;;
33138;SDS011;19501;50.948;5.316;2023-11-19T14:09:59;32.38;;;6.18;;
33138;SDS011;19501;50.948;5.316;2023-11-19T14:12:24;28.67;;;4.78;;
33138;SDS011;19501;50.948;5.316;2023-11-19T14:14:50;25.67;;;4.95;;
33138;SDS011;19501;50.948;5.316;2023-11-19T14:17:16;26.23;;;5.82;;
33138;SDS011;19501;50.948;5.316;2023-11-19T14:19:44;23.60;;;4.63;;
33138;SDS011;19501;50.948;5.316;2023-11-19T14:22:12;26.30;;;5.43;;
33138;SDS011;19501;50.948;5.316;2023-11-19T14:24:38;27.52;;;5.32;;
33138;SDS011;19501;50.948;5.316;2023-11-19T14:27:05;24.17;;;5.25;;
33138;SDS011;19501;50.948;5.316;2023-11-19T14:29:31;26.73;;;5.20;;
33138;SDS011;19501;50.948;5.316;2023-11-19T14:31:57;19.40;;;3.97;;
33138;SDS011;19501;50.948;5.316;2023-11-19T14:34:24;38.13;;;5.47;;
33138;SDS011;19501;50.948;5.316;2023-11-19T14:36:51;37.70;;;6.88;;
33138;SDS011;19501;50.948;5.316;2023-11-19T14:39:17;34.50;;;5.13;;
33138;SDS011;19501;50.948;5.316;2023-11-19T14:41:43;34.42;;;5.82;;
33138;SDS011;19501;50.948;5.316;2023-11-19T14:44:11;28.27;;;5.10;;
33138;SDS011;19501;50.948;5.316;2023-11-19T14:46:37;28.80;;;6.10;;
33138;SDS011;19501;50.948;5.316;2023-11-19T14:49:03;27.48;;;5.20;;
33138;SDS011;19501;50.948;5.316;2023-11-19T14:51:29;26.80;;;5.35;;
33138;SDS011;19501;50.948;5.316;2023-11-19T14:53:55;28.05;;;5.55;;
33138;SDS011;19501;50.948;5.316;2023-11-19T14:56:21;34.80;;;5.57;;